Queen Isabella — A8IE2 — position and weather

sailwx.info

Track history (hours):
 
Tides and Currents Weather Stations Pressure Air Temp Water Temp Dewpoint Dewpoint Depression Visibility Wind Speed Wind Dir Waves Ship Positions

Queen Isabella

Last reported at 2014-Oct-31 16:27 UTC. Time now 2014-Nov-01 13:50 UTC.
Position N 35°59' W 005°32'.

Length 131 m; draft 5.4 m.

Type: Ship. MMSI: 636090959.

Date/timePositionNaut miles runAvg speedWind from/ knotsBaromVisibWave heightAir tempDewpointWater temp
2014-Oct-31 16:27N 35°59' W 005°32'1112.3
2014-Oct-31 15:34N 36°02' W 005°19'22613.0
2014-Oct-30 22:10N 37°19' W 000°55'813.3
2014-Oct-30 21:33N 37°25' W 000°47'1413.6
2014-Oct-30 20:33N 37°34' W 000°34'1313.3
2014-Oct-30 19:33N 37°45' W 000°25'10711.5
2014-Oct-30 10:15N 39°31' W 000°09'710.6
2014-Oct-30 09:33N 39°38' W 000°12'1 0.1
2014-Oct-29 05:28N 39°37' W 000°12'  
2014-Oct-26 18:24N 35°59' W 005°12'1214.1
2014-Oct-26 17:33N 35°57' W 005°26'1413.3
2014-Oct-26 16:31N 35°54' W 005°43'  
Track history (hours):
 
Tides and Currents Weather Stations Pressure Air Temp Water Temp Dewpoint Dewpoint Depression Visibility Wind Speed Wind Dir Waves Ship Positions

Queen Isabella

Last reported at 2014-Oct-31 16:27 UTC. Time now 2014-Nov-01 13:50 UTC.
Position N 35°59' W 005°32'.

Length 131 m; draft 5.4 m.

Type: Ship. MMSI: 636090959.

Date/timePositionNaut miles runAvg speedWind from/ knotsBaromVisibWave heightAir tempDewpointWater temp
2014-Oct-31 16:27N 35°59' W 005°32'1112.3
2014-Oct-31 15:34N 36°02' W 005°19'22613.0
2014-Oct-30 22:10N 37°19' W 000°55'813.3
2014-Oct-30 21:33N 37°25' W 000°47'1413.6
2014-Oct-30 20:33N 37°34' W 000°34'1313.3
2014-Oct-30 19:33N 37°45' W 000°25'10711.5
2014-Oct-30 10:15N 39°31' W 000°09'710.6
2014-Oct-30 09:33N 39°38' W 000°12'1 0.1
2014-Oct-29 05:28N 39°37' W 000°12'  
2014-Oct-26 18:24N 35°59' W 005°12'1214.1
2014-Oct-26 17:33N 35°57' W 005°26'1413.3
2014-Oct-26 16:31N 35°54' W 005°43'  

Dump ship's entire track history